Pretty Hana — DSQJ5 — position and weather

sailwx.info

Track history (hours):
 
Tides and Currents Weather Stations Pressure Air Temp Water Temp Dewpoint Dewpoint Depression Visibility Wind Speed Wind Dir Waves Ship Positions

Pretty Hana

Last reported at 2014-Oct-23 17:33 UTC. Time now 2014-Oct-24 23:52 UTC.
Position N 34°37' E 134°53'.

Length 65 m; draft 4.5 m.

Type: Ship (hazmat cat A). MMSI: 441600000.

Date/timePositionNaut miles runAvg speedWind from/ knotsBaromVisibWave heightAir tempDewpointWater temp
2014-Oct-23 17:33N 34°37' E 134°53'8 8.2
2014-Oct-23 16:33N 34°37' E 135°03'9 8.5
2014-Oct-23 15:33N 34°28' E 135°03'1210.7
2014-Oct-23 14:29N 34°17' E 134°59'243 8.3
2014-Oct-22 09:09N 35°16' E 139°46'711.7
2014-Oct-22 08:34N 35°22' E 139°42'19 2.4
2014-Oct-22 00:31N 35°37' E 139°58'5 0.2
2014-Oct-20 18:16N 35°33' E 139°55'810.7
2014-Oct-20 17:33N 35°27' E 139°49'10 9.9
2014-Oct-20 16:34N 35°17' E 139°45'  
Track history (hours):
 
Tides and Currents Weather Stations Pressure Air Temp Water Temp Dewpoint Dewpoint Depression Visibility Wind Speed Wind Dir Waves Ship Positions

Pretty Hana

Last reported at 2014-Oct-23 17:33 UTC. Time now 2014-Oct-24 23:52 UTC.
Position N 34°37' E 134°53'.

Length 65 m; draft 4.5 m.

Type: Ship (hazmat cat A). MMSI: 441600000.

Date/timePositionNaut miles runAvg speedWind from/ knotsBaromVisibWave heightAir tempDewpointWater temp
2014-Oct-23 17:33N 34°37' E 134°53'8 8.2
2014-Oct-23 16:33N 34°37' E 135°03'9 8.5
2014-Oct-23 15:33N 34°28' E 135°03'1210.7
2014-Oct-23 14:29N 34°17' E 134°59'243 8.3
2014-Oct-22 09:09N 35°16' E 139°46'711.7
2014-Oct-22 08:34N 35°22' E 139°42'19 2.4
2014-Oct-22 00:31N 35°37' E 139°58'5 0.2
2014-Oct-20 18:16N 35°33' E 139°55'810.7
2014-Oct-20 17:33N 35°27' E 139°49'10 9.9
2014-Oct-20 16:34N 35°17' E 139°45'  

Dump ship's entire track history